createdAt,value
2019-05-25T00:00:41.148Z,40.97
2019-05-25T00:03:18.636Z,41.56
2019-05-25T00:05:56.746Z,41.32
2019-05-25T00:08:34.467Z,41.69
2019-05-25T00:11:10.810Z,41.86
2019-05-25T00:13:48.969Z,41.92
2019-05-25T00:16:24.440Z,42.37
2019-05-25T00:19:01.323Z,42.12
2019-05-25T00:21:37.284Z,42.08
2019-05-25T00:24:13.013Z,42.78
2019-05-25T00:26:49.590Z,42.92
2019-05-25T00:29:28.635Z,42.62
2019-05-25T00:32:08.899Z,42.65
2019-05-25T00:34:44.542Z,43.43
2019-05-25T00:37:21.088Z,44.25
2019-05-25T00:39:58.267Z,43.59
2019-05-25T00:42:33.595Z,43.67
2019-05-25T00:45:11.124Z,44.20
2019-05-25T00:47:51.575Z,44.23
2019-05-25T00:50:29.293Z,44.22
2019-05-25T00:53:06.443Z,44.52
2019-05-25T00:55:42.338Z,44.60
2019-05-25T00:58:20.015Z,44.96
2019-05-25T01:00:59.101Z,45.42
2019-05-25T01:03:35.966Z,45.64
2019-05-25T01:06:14.581Z,45.91
2019-05-25T01:08:54.506Z,46.42
2019-05-25T01:11:36.111Z,46.76
2019-05-25T01:14:11.360Z,46.66
2019-05-25T01:16:46.899Z,46.91
2019-05-25T01:19:23.289Z,47.12
2019-05-25T01:22:03.491Z,47.78
2019-05-25T01:24:44.784Z,48.01
2019-05-25T01:27:20.708Z,47.93
2019-05-25T01:29:55.865Z,48.39
2019-05-25T01:32:31.126Z,48.58
2019-05-25T01:35:07.558Z,48.78
2019-05-25T01:37:43.252Z,49.18
2019-05-25T01:40:21.040Z,49.25
2019-05-25T01:42:57.293Z,49.80
2019-05-25T01:45:36.309Z,50.13
2019-05-25T01:48:11.401Z,50.49
2019-05-25T01:50:48.334Z,51.01
2019-05-25T01:53:25.753Z,51.47
2019-05-25T01:56:06.022Z,51.86
2019-05-25T01:58:46.912Z,52.23
2019-05-25T02:01:22.901Z,52.69
2019-05-25T02:03:58.280Z,52.70
2019-05-25T02:06:35.081Z,53.25
2019-05-25T02:09:10.568Z,53.96
2019-05-25T02:11:51.263Z,54.72
2019-05-25T02:14:28.482Z,54.97
2019-05-25T02:17:03.956Z,55.66
2019-05-25T02:19:40.610Z,56.30
2019-05-25T02:22:18.335Z,56.87
2019-05-25T02:24:58.027Z,57.23
2019-05-25T02:27:33.228Z,57.88
2019-05-25T02:30:13.813Z,58.41
2019-05-25T02:32:49.236Z,58.69
2019-05-25T02:35:27.136Z,59.14
2019-05-25T02:38:04.939Z,59.77
2019-05-25T02:40:40.207Z,59.98
2019-05-25T02:43:15.769Z,60.21
2019-05-25T02:45:51.248Z,60.21
2019-05-25T02:48:27.489Z,60.52
2019-05-25T02:51:02.990Z,60.42
2019-05-25T02:53:39.502Z,60.48
2019-05-25T02:56:15.223Z,60.72
2019-05-25T02:58:50.914Z,60.99
2019-05-25T03:01:32.243Z,61.18
2019-05-25T03:04:09.765Z,61.33
2019-05-25T03:06:47.865Z,61.76
2019-05-25T03:09:24.537Z,62.02
2019-05-25T03:12:01.660Z,62.44
2019-05-25T03:14:37.143Z,62.45
2019-05-25T03:17:16.584Z,62.73
2019-05-25T03:19:56.949Z,62.78
2019-05-25T03:22:32.459Z,62.96
2019-05-25T03:25:15.881Z,63.55
2019-05-25T03:27:52.849Z,63.79
2019-05-25T03:30:36.819Z,64.24
2019-05-25T03:33:12.099Z,64.51
2019-05-25T03:35:47.651Z,64.89
2019-05-25T03:38:24.486Z,65.25
2019-05-25T03:41:00.394Z,65.26
2019-05-25T03:43:36.154Z,65.80
2019-05-25T03:46:11.311Z,65.75
2019-05-25T03:48:46.448Z,65.94
2019-05-25T03:51:23.533Z,66.14
2019-05-25T03:53:58.784Z,66.27
2019-05-25T03:56:35.671Z,66.46
2019-05-25T03:59:14.836Z,66.51
2019-05-25T04:01:49.934Z,66.77
2019-05-25T04:04:26.440Z,66.73
2019-05-25T04:07:02.852Z,66.80
2019-05-25T04:09:42.923Z,66.99
2019-05-25T04:12:21.274Z,66.85
2019-05-25T04:14:57.269Z,66.82
2019-05-25T04:17:35.952Z,66.65
2019-05-25T04:20:13.780Z,66.35
2019-05-25T04:22:49.072Z,66.49
2019-05-25T04:25:24.528Z,66.11
2019-05-25T04:28:03.345Z,66.23
2019-05-25T04:30:39.621Z,66.01
2019-05-25T04:33:26.937Z,65.51
2019-05-25T04:36:07.826Z,65.41
2019-05-25T04:38:45.601Z,64.84
2019-05-25T04:41:24.224Z,64.19
2019-05-25T04:44:07.039Z,64.19
2019-05-25T04:46:44.147Z,64.34
2019-05-25T04:49:25.112Z,64.40
2019-05-25T04:52:04.225Z,64.28
2019-05-25T04:54:45.771Z,63.86
2019-05-25T04:57:25.299Z,64.03
2019-05-25T05:00:08.750Z,63.57
2019-05-25T05:02:48.702Z,63.34
2019-05-25T05:05:30.071Z,62.94
2019-05-25T05:08:10.689Z,62.97
2019-05-25T05:10:49.562Z,62.75
2019-05-25T05:13:27.152Z,62.47
2019-05-25T05:16:10.293Z,62.35
2019-05-25T05:18:50.070Z,62.31
2019-05-25T05:21:34.682Z,62.08
2019-05-25T05:24:10.119Z,61.97
2019-05-25T05:26:55.930Z,61.92
2019-05-25T05:29:24.973Z,62.08
2019-05-25T05:32:00.632Z,61.89
2019-05-25T05:34:37.275Z,61.51
2019-05-25T05:37:15.197Z,61.58
2019-05-25T05:39:53.888Z,61.75
2019-05-25T05:42:29.505Z,61.77
2019-05-25T05:45:06.434Z,61.81
2019-05-25T05:47:52.905Z,61.47
2019-05-25T05:50:30.048Z,61.30
2019-05-25T05:53:10.065Z,60.93
2019-05-25T05:55:47.697Z,61.16
2019-05-25T05:58:30.900Z,61.21
2019-05-25T06:01:16.929Z,61.36
2019-05-25T06:03:53.252Z,61.57
2019-05-25T06:06:32.116Z,61.21
2019-05-25T06:09:12.084Z,60.89
2019-05-25T06:11:50.948Z,60.58
2019-05-25T06:14:31.302Z,60.13
2019-05-25T06:17:08.176Z,58.38
2019-05-25T06:19:44.534Z,57.85
2019-05-25T06:22:21.545Z,56.69
2019-05-25T06:25:00.286Z,56.28
2019-05-25T06:27:37.400Z,55.86
2019-05-25T06:30:17.902Z,55.41
2019-05-25T06:32:56.968Z,55.12
2019-05-25T06:35:44.304Z,54.36
2019-05-25T06:38:19.955Z,54.60
2019-05-25T06:41:01.338Z,55.01
2019-05-25T06:43:44.661Z,54.58
2019-05-25T06:46:26.405Z,53.75
2019-05-25T06:49:07.942Z,52.35
2019-05-25T06:52:03.740Z,51.12
2019-05-25T06:54:40.010Z,49.98
2019-05-25T06:57:19.303Z,48.67
2019-05-25T06:59:59.621Z,47.68
2019-05-25T07:02:35.202Z,47.57
2019-05-25T07:05:11.924Z,47.87
2019-05-25T07:07:49.651Z,48.19
2019-05-25T07:10:24.913Z,48.46
2019-05-25T07:13:03.437Z,47.98
2019-05-25T07:15:39.499Z,48.26
2019-05-25T07:18:16.282Z,47.81
2019-05-25T07:20:54.240Z,47.91
2019-05-25T07:23:30.015Z,48.76
2019-05-25T07:26:15.701Z,49.36
2019-05-25T07:28:59.462Z,49.26
2019-05-25T07:31:42.375Z,49.83
2019-05-25T07:34:17.866Z,49.50
2019-05-25T07:36:54.103Z,50.01
2019-05-25T07:39:31.002Z,50.10
2019-05-25T07:42:07.262Z,49.94
2019-05-25T07:44:49.265Z,50.26
2019-05-25T07:47:36.360Z,51.04
2019-05-25T07:50:24.757Z,51.14
2019-05-25T07:53:08.673Z,50.45
2019-05-25T07:55:46.947Z,50.79
2019-05-25T07:58:22.960Z,51.26
2019-05-25T08:00:58.340Z,51.24
2019-05-25T08:03:33.952Z,52.43
2019-05-25T08:06:13.941Z,53.10
2019-05-25T08:08:49.452Z,53.30
2019-05-25T08:11:24.489Z,52.97
2019-05-25T08:14:01.449Z,52.70
2019-05-25T08:16:37.048Z,52.88
2019-05-25T08:19:12.645Z,53.25
2019-05-25T08:21:52.808Z,53.74
2019-05-25T08:24:29.014Z,53.84
2019-05-25T08:27:07.464Z,53.30
2019-05-25T08:29:45.587Z,52.87
2019-05-25T08:32:22.985Z,53.20
2019-05-25T08:34:59.440Z,53.31
2019-05-25T08:37:35.948Z,53.84
2019-05-25T08:40:13.616Z,54.04
2019-05-25T08:42:49.848Z,54.32
2019-05-25T08:45:32.359Z,54.65
2019-05-25T08:48:08.199Z,54.78
2019-05-25T08:50:44.180Z,55.76
2019-05-25T08:53:39.546Z,55.73
2019-05-25T08:56:02.557Z,56.11
2019-05-25T08:58:48.490Z,55.87
2019-05-25T09:01:18.538Z,55.79
2019-05-25T09:03:58.070Z,55.76
2019-05-25T09:07:00.175Z,56.10
2019-05-25T09:09:47.921Z,56.52
2019-05-25T09:12:29.225Z,56.90
2019-05-25T09:15:11.491Z,57.22
2019-05-25T09:17:50.202Z,57.37
2019-05-25T09:20:29.535Z,57.29
2019-05-25T09:23:09.558Z,56.89
2019-05-25T09:25:45.864Z,55.97
2019-05-25T09:28:23.071Z,55.51
2019-05-25T09:30:58.627Z,54.33
2019-05-25T09:33:35.068Z,52.51
2019-05-25T09:36:10.354Z,52.62
2019-05-25T09:38:45.492Z,53.22
2019-05-25T09:41:21.819Z,54.21
2019-05-25T09:43:57.223Z,54.31
2019-05-25T09:46:32.671Z,54.36
2019-05-25T09:49:07.942Z,54.26
2019-05-25T09:51:44.236Z,54.93
2019-05-25T09:54:22.465Z,55.06
2019-05-25T09:56:59.472Z,55.67
2019-05-25T09:59:37.416Z,55.72
2019-05-25T10:02:12.552Z,55.26
2019-05-25T10:04:48.144Z,55.57
2019-05-25T10:07:23.279Z,54.83
2019-05-25T10:10:01.153Z,53.56
2019-05-25T10:12:36.706Z,52.27
2019-05-25T10:15:13.262Z,51.61
2019-05-25T10:17:48.744Z,50.79
2019-05-25T10:20:34.430Z,51.04
2019-05-25T10:23:11.261Z,50.06
2019-05-25T10:25:46.724Z,49.07
2019-05-25T10:28:23.083Z,48.30
2019-05-25T10:31:00.309Z,47.32
2019-05-25T10:33:35.920Z,46.49
2019-05-25T10:36:12.766Z,45.37
2019-05-25T10:38:50.655Z,45.42
2019-05-25T10:41:27.060Z,44.13
2019-05-25T10:44:07.427Z,44.07
2019-05-25T10:46:42.863Z,43.86
2019-05-25T10:49:21.104Z,43.24
2019-05-25T10:52:00.427Z,42.87
2019-05-25T10:54:35.936Z,43.47
2019-05-25T10:57:16.766Z,43.78
2019-05-25T10:59:55.526Z,43.67
2019-05-25T11:02:33.895Z,44.17
2019-05-25T11:05:28.891Z,43.90
2019-05-25T11:08:05.726Z,43.91
2019-05-25T11:10:42.281Z,44.13
2019-05-25T11:13:17.801Z,44.85
2019-05-25T11:15:55.773Z,44.00
2019-05-25T11:18:34.625Z,43.53
2019-05-25T11:21:16.771Z,42.45
2019-05-25T11:23:55.336Z,42.37
2019-05-25T11:26:31.644Z,41.84
2019-05-25T11:29:18.000Z,40.83
2019-05-25T11:38:03.489Z,39.53
2019-05-25T11:40:38.841Z,40.25
2019-05-25T11:43:21.435Z,40.42
2019-05-25T11:46:01.899Z,40.83
2019-05-25T11:48:41.184Z,40.29
2019-05-25T11:57:14.007Z,42.50
2019-05-25T11:59:57.680Z,42.87
2019-05-25T12:02:37.818Z,44.18
2019-05-25T12:05:16.920Z,44.00
2019-05-25T12:07:52.176Z,43.41
2019-05-25T12:11:05.205Z,41.56
2019-05-25T12:13:40.989Z,41.39
2019-05-25T12:16:16.201Z,42.96
2019-05-25T12:18:51.374Z,42.66
2019-05-25T12:21:30.596Z,43.27
2019-05-25T12:24:06.986Z,42.71
2019-05-25T12:26:45.775Z,43.67
2019-05-25T12:29:27.484Z,43.88
2019-05-25T12:32:04.402Z,43.64
2019-05-25T12:34:41.844Z,43.14
2019-05-25T12:37:18.212Z,42.11
2019-05-25T12:39:56.992Z,42.18
2019-05-25T12:42:33.886Z,42.70
2019-05-25T12:45:09.798Z,43.44
2019-05-25T12:47:45.946Z,44.32
2019-05-25T12:50:24.792Z,45.29
2019-05-25T12:53:00.579Z,45.19
2019-05-25T12:55:38.433Z,45.85
2019-05-25T12:58:13.854Z,45.73
2019-05-25T13:00:55.914Z,46.01
2019-05-25T13:03:28.475Z,45.92
2019-05-25T13:06:03.850Z,46.31
2019-05-25T13:08:43.901Z,44.90
2019-05-25T13:11:18.991Z,43.81
2019-05-25T13:13:55.483Z,42.78
2019-05-25T13:16:30.861Z,42.01
2019-05-25T13:19:07.144Z,41.50
2019-05-25T13:21:42.582Z,41.64
2019-05-25T13:24:21.992Z,42.09
2019-05-25T13:26:57.390Z,43.25
2019-05-25T13:29:33.905Z,44.03
2019-05-25T13:32:08.999Z,44.67
2019-05-25T13:34:47.205Z,45.69
2019-05-25T13:37:22.576Z,44.91
2019-05-25T13:39:57.685Z,45.91
2019-05-25T13:42:32.833Z,44.61
2019-05-25T13:45:11.659Z,45.47
2019-05-25T13:47:47.981Z,44.57
2019-05-25T13:50:23.479Z,44.36
2019-05-25T13:52:58.730Z,44.26
2019-05-25T13:55:33.957Z,43.47
2019-05-25T13:58:09.966Z,44.69
2019-05-25T14:00:45.374Z,44.50
2019-05-25T14:03:21.502Z,44.22
2019-05-25T14:05:57.146Z,43.86
2019-05-25T14:08:32.212Z,44.43
2019-05-25T14:11:09.598Z,44.07
2019-05-25T14:13:46.028Z,43.43
2019-05-25T14:16:21.602Z,43.03
2019-05-25T14:18:56.728Z,43.13
2019-05-25T14:21:33.049Z,43.16
2019-05-25T14:24:13.472Z,43.05
2019-05-25T14:26:49.867Z,44.16
2019-05-25T14:29:26.528Z,44.30
2019-05-25T14:32:01.946Z,44.55
2019-05-25T14:34:37.170Z,44.28
2019-05-25T14:37:12.391Z,44.05
2019-05-25T14:39:49.489Z,43.25
2019-05-25T14:42:25.525Z,43.47
2019-05-25T14:45:01.050Z,44.43
2019-05-25T14:47:37.713Z,43.84
2019-05-25T14:50:13.800Z,43.34
2019-05-25T14:52:53.140Z,43.19
2019-05-25T14:55:28.344Z,42.87
2019-05-25T14:58:03.612Z,43.59
2019-05-25T15:00:38.932Z,43.38
2019-05-25T15:03:14.071Z,43.43
2019-05-25T15:05:49.452Z,43.76
2019-05-25T15:08:25.509Z,44.11
2019-05-25T15:11:00.776Z,44.26
2019-05-25T15:13:36.060Z,44.06
2019-05-25T15:16:11.113Z,44.11
2019-05-25T15:18:46.350Z,43.99
2019-05-25T15:21:21.864Z,45.07
2019-05-25T15:23:57.476Z,45.30
2019-05-25T15:26:33.911Z,45.63
2019-05-25T15:29:11.448Z,45.46
2019-05-25T15:31:48.930Z,45.03
2019-05-25T15:34:28.224Z,45.33
2019-05-25T15:37:03.581Z,44.25
2019-05-25T15:39:39.702Z,43.46
2019-05-25T15:42:15.055Z,42.83
2019-05-25T15:44:50.532Z,42.48
2019-05-25T15:50:30.780Z,43.39
2019-05-25T15:53:05.976Z,44.09
2019-05-25T15:55:43.446Z,44.26
2019-05-25T15:58:18.856Z,44.59
2019-05-25T16:00:54.080Z,45.15
2019-05-25T16:03:29.487Z,45.17
2019-05-25T16:06:04.593Z,45.53
2019-05-25T16:08:39.755Z,45.32
2019-05-25T16:11:15.108Z,44.77
2019-05-25T16:13:50.442Z,44.51
2019-05-25T16:16:30.104Z,45.40
2019-05-25T16:19:05.880Z,45.06
2019-05-25T16:21:45.951Z,44.82
2019-05-25T16:24:21.248Z,44.69
2019-05-25T16:26:59.105Z,45.00
2019-05-25T16:29:34.639Z,45.49
2019-05-25T16:32:09.747Z,45.67
2019-05-25T16:34:45.925Z,45.53
2019-05-25T16:37:21.275Z,46.19
2019-05-25T16:39:56.571Z,45.83
2019-05-25T16:42:33.002Z,46.30
2019-05-25T16:45:09.108Z,46.72
2019-05-25T16:47:45.702Z,46.86
2019-05-25T16:50:21.170Z,47.53
2019-05-25T16:52:57.086Z,48.00
2019-05-25T16:55:32.897Z,47.75
2019-05-25T16:58:10.000Z,47.70
2019-05-25T17:00:46.341Z,47.14
2019-05-25T17:03:28.073Z,47.95
2019-05-25T17:05:58.578Z,48.15
2019-05-25T17:08:41.124Z,48.31
2019-05-25T17:11:16.535Z,48.93
2019-05-25T17:13:54.264Z,48.19
2019-05-25T17:16:29.706Z,47.81
2019-05-25T17:19:05.330Z,48.61
2019-05-25T17:21:42.187Z,48.34
2019-05-25T17:24:18.509Z,47.63
2019-05-25T17:26:54.158Z,47.36
2019-05-25T17:29:30.295Z,47.94
2019-05-25T17:32:07.417Z,47.83
2019-05-25T17:34:49.243Z,47.94
2019-05-25T17:37:24.633Z,47.77
2019-05-25T17:40:00.782Z,47.93
2019-05-25T17:42:36.262Z,47.89
2019-05-25T17:45:11.952Z,48.08
2019-05-25T17:47:47.283Z,47.60
2019-05-25T17:50:22.591Z,46.66
2019-05-25T17:53:00.209Z,47.04
2019-05-25T17:55:35.354Z,47.38
2019-05-25T17:58:11.000Z,47.59
2019-05-25T18:00:49.430Z,46.46
2019-05-25T18:03:24.775Z,46.94
2019-05-25T18:05:59.891Z,46.80
2019-05-25T18:08:37.062Z,46.82
2019-05-25T18:11:13.423Z,46.16
2019-05-25T18:13:48.670Z,46.29
2019-05-25T18:16:23.970Z,46.18
2019-05-25T18:18:59.124Z,46.07
2019-05-25T18:21:34.516Z,46.22
2019-05-25T18:24:09.880Z,46.75
2019-05-25T18:26:46.605Z,47.21
2019-05-25T18:29:23.923Z,47.44
2019-05-25T18:31:59.016Z,47.28
2019-05-25T18:34:34.985Z,47.71
2019-05-25T18:37:10.682Z,47.77
2019-05-25T18:39:45.839Z,48.20
2019-05-25T18:42:22.298Z,47.94
2019-05-25T18:44:58.381Z,48.68
2019-05-25T18:47:36.123Z,48.58
2019-05-25T18:50:11.652Z,48.59
2019-05-25T18:52:46.883Z,49.20
2019-05-25T18:55:22.250Z,49.58
2019-05-25T18:57:57.821Z,49.87
2019-05-25T19:00:33.075Z,49.51
2019-05-25T19:03:08.571Z,49.74
2019-05-25T19:05:44.017Z,49.81
2019-05-25T19:08:21.351Z,49.48
2019-05-25T19:10:59.227Z,49.54
2019-05-25T19:13:36.366Z,49.65
2019-05-25T19:16:11.489Z,50.07
2019-05-25T19:18:46.671Z,50.15
2019-05-25T19:21:21.802Z,50.01
2019-05-25T19:23:57.092Z,49.96
2019-05-25T19:26:32.361Z,49.87
2019-05-25T19:29:07.459Z,50.06
2019-05-25T19:31:42.590Z,50.66
2019-05-25T19:34:17.682Z,50.80
2019-05-25T19:36:52.923Z,51.14
2019-05-25T19:39:28.063Z,51.54
2019-05-25T19:42:03.557Z,52.00
2019-05-25T19:44:38.972Z,52.27
2019-05-25T19:47:14.534Z,52.61
2019-05-25T19:49:49.717Z,52.73
2019-05-25T19:52:25.018Z,52.91
2019-05-25T19:55:01.632Z,53.09
2019-05-25T19:57:37.439Z,53.27
2019-05-25T20:00:15.952Z,53.57
2019-05-25T20:02:52.236Z,53.61
2019-05-25T20:05:27.750Z,53.92
2019-05-25T20:08:03.045Z,54.13
2019-05-25T20:10:39.692Z,54.33
2019-05-25T20:13:14.807Z,54.42
2019-05-25T20:15:49.894Z,54.63
2019-05-25T20:18:25.316Z,54.79
2019-05-25T20:21:03.024Z,54.86
2019-05-25T20:23:38.230Z,55.10
2019-05-25T20:26:14.422Z,55.15
2019-05-25T20:28:51.069Z,55.44
2019-05-25T20:31:26.412Z,55.59
2019-05-25T20:34:03.272Z,55.69
2019-05-25T20:36:39.580Z,55.77
2019-05-25T20:39:14.647Z,55.98
2019-05-25T20:41:49.797Z,56.16
2019-05-25T20:44:26.601Z,56.32
2019-05-25T20:47:03.787Z,56.41
2019-05-25T20:49:39.232Z,56.72
2019-05-25T20:52:14.798Z,57.01
2019-05-25T20:54:51.720Z,57.27
2019-05-25T20:57:27.033Z,57.41
2019-05-25T21:00:02.305Z,57.68
2019-05-25T21:02:37.979Z,57.67
2019-05-25T21:05:13.599Z,58.03
2019-05-25T21:07:51.012Z,58.20
2019-05-25T21:10:26.126Z,58.21
2019-05-25T21:13:01.363Z,58.05
2019-05-25T21:15:36.498Z,61.33
2019-05-25T21:18:11.578Z,62.14
2019-05-25T21:20:47.016Z,58.49
2019-05-25T21:23:23.064Z,58.18
2019-05-25T21:25:58.548Z,58.36
2019-05-25T21:28:34.850Z,58.88
2019-05-25T21:31:10.220Z,59.07
2019-05-25T21:33:45.535Z,59.17
2019-05-25T21:36:22.201Z,59.07
2019-05-25T21:38:57.925Z,59.21
2019-05-25T21:41:33.903Z,59.26
2019-05-25T21:44:14.442Z,59.56
2019-05-25T21:46:50.087Z,59.56
2019-05-25T21:49:26.990Z,59.88
2019-05-25T21:52:05.177Z,59.80
2019-05-25T21:54:42.442Z,60.06
2019-05-25T21:57:21.660Z,60.45
2019-05-25T22:02:56.847Z,60.51
2019-05-25T22:05:32.912Z,60.49
2019-05-25T22:08:10.093Z,60.59
2019-05-25T22:10:50.662Z,60.54
2019-05-25T22:13:31.371Z,60.67
2019-05-25T22:16:11.809Z,60.89
2019-05-25T22:18:47.388Z,60.89
2019-05-25T22:24:22.842Z,61.24
2019-05-25T22:26:58.206Z,61.10
2019-05-25T22:29:35.062Z,61.33
2019-05-25T22:32:21.402Z,61.37
2019-05-25T22:34:58.097Z,61.56
2019-05-25T22:37:33.665Z,61.65
2019-05-25T22:40:10.935Z,61.63
2019-05-25T22:42:47.783Z,61.87
2019-05-25T22:45:34.486Z,61.87
2019-05-25T22:48:14.508Z,61.96
2019-05-25T22:50:51.441Z,62.16
2019-05-25T22:53:27.516Z,62.25
2019-05-25T22:56:05.981Z,62.36
2019-05-25T22:58:42.938Z,62.37
2019-05-25T23:01:27.134Z,62.42
2019-05-25T23:04:07.737Z,62.57
2019-05-25T23:06:57.243Z,62.65
2019-05-25T23:09:32.859Z,62.87
2019-05-25T23:12:08.962Z,62.95
2019-05-25T23:14:46.609Z,63.08
2019-05-25T23:17:30.395Z,63.05
2019-05-25T23:20:09.101Z,63.19
2019-05-25T23:22:47.307Z,63.25
2019-05-25T23:25:24.312Z,63.18
2019-05-25T23:28:01.401Z,63.06
2019-05-25T23:30:36.859Z,63.09
2019-05-25T23:33:14.858Z,63.03
2019-05-25T23:35:53.517Z,62.95
2019-05-25T23:38:28.907Z,63.01
2019-05-25T23:41:04.158Z,63.03
2019-05-25T23:43:46.416Z,63.18
2019-05-25T23:46:22.780Z,63.41
2019-05-25T23:48:58.174Z,63.33
2019-05-25T23:51:52.170Z,63.45
2019-05-25T23:54:30.917Z,63.41
2019-05-25T23:57:08.853Z,63.04
2019-05-25T23:59:48.990Z,63.06
